Time;durP1;ratioP1;P1;durP2;ratioP2;P2;SDS_P1;SDS_P2;PMS_P1;PMS_P2;Temp;Humidity;BMP_temperature;BMP_pressure;BME280_temperature;BME280_humidity;BME280_pressure;Samples;Min_cycle;Max_cycle;Signal;HPM_P1;HPM_P2
2022/07/26 00:00:12;;;;;;;20.83;19.23;;;18.70;99.90;;;;;;5010657;28;20045;-73
2022/07/26 00:02:40;;;;;;;20.13;18.77;;;18.80;99.90;;;;;;5007150;28;20050;-73
2022/07/26 00:05:17;;;;;;;20.75;18.85;;;18.80;99.90;;;;;;5009167;28;20045;-73
2022/07/26 00:07:45;;;;;;;21.45;19.35;;;18.80;99.90;;;;;;5008446;28;20048;-73
2022/07/26 00:10:13;;;;;;;21.10;19.33;;;18.70;99.90;;;;;;5007129;28;20477;-73
2022/07/26 00:12:40;;;;;;;20.65;18.85;;;18.70;99.90;;;;;;5004320;28;20042;-73
2022/07/26 00:15:10;;;;;;;20.95;19.08;;;18.70;99.90;;;;;;5005888;28;20052;-73
2022/07/26 00:17:39;;;;;;;20.95;19.42;;;18.60;99.90;;;;;;5004251;28;20627;-71
2022/07/26 00:20:06;;;;;;;21.10;19.30;;;18.60;99.90;;;;;;4995133;28;20091;-73
2022/07/26 00:22:33;;;;;;;21.30;19.60;;;18.60;99.90;;;;;;5005718;28;20562;-73
2022/07/26 00:25:05;;;;;;;21.20;19.40;;;18.60;99.90;;;;;;5004568;28;20543;-74
2022/07/26 00:27:35;;;;;;;21.90;19.75;;;18.60;99.90;;;;;;5032401;28;20068;-74
2022/07/26 00:30:07;;;;;;;21.23;19.48;;;18.60;99.90;;;;;;5034901;28;20041;-71
2022/07/26 00:32:34;;;;;;;21.77;19.98;;;18.50;99.90;;;;;;5031361;28;20051;-71
2022/07/26 00:35:02;;;;;;;22.10;20.27;;;18.40;99.90;;;;;;5035323;28;20065;-71
2022/07/26 00:37:29;;;;;;;22.10;20.02;;;18.40;99.90;;;;;;5008551;28;20053;-71
2022/07/26 00:39:56;;;;;;;21.52;19.50;;;18.40;99.90;;;;;;5006612;28;20034;-71
2022/07/26 00:42:22;;;;;;;21.48;19.85;;;18.50;99.90;;;;;;4994817;28;20077;-72
2022/07/26 00:44:49;;;;;;;20.55;19.25;;;18.50;99.90;;;;;;4993075;28;20533;-72
2022/07/26 00:47:17;;;;;;;20.90;19.40;;;18.50;99.90;;;;;;4996760;28;20076;-71
2022/07/26 00:49:44;;;;;;;21.40;19.90;;;18.40;99.90;;;;;;5067003;22;20072;-78
2022/07/26 00:52:12;;;;;;;21.25;19.75;;;18.40;99.90;;;;;;5054728;28;20047;-78
2022/07/26 00:54:42;;;;;;;21.40;19.52;;;18.50;99.90;;;;;;5036309;28;20112;-78
2022/07/26 00:57:09;;;;;;;20.92;19.63;;;18.40;99.90;;;;;;5051084;28;20068;-79
2022/07/26 00:59:36;;;;;;;21.45;19.40;;;18.40;99.90;;;;;;5038724;28;20087;-78
2022/07/26 01:02:06;;;;;;;21.42;19.52;;;18.40;99.90;;;;;;5045847;28;20041;-78
2022/07/26 01:04:33;;;;;;;22.10;20.05;;;18.30;99.90;;;;;;5050846;28;20136;-77
2022/07/26 01:07:00;;;;;;;21.80;19.90;;;18.30;99.90;;;;;;5048725;28;20174;-78
2022/07/26 01:09:27;;;;;;;20.83;18.95;;;18.20;99.90;;;;;;5048175;28;20441;-77
2022/07/26 01:11:54;;;;;;;21.38;19.70;;;18.20;99.90;;;;;;5024945;28;20048;-78
2022/07/26 01:14:22;;;;;;;21.23;19.10;;;18.20;99.90;;;;;;5029233;28;20044;-78
2022/07/26 01:16:49;;;;;;;21.27;19.42;;;18.20;99.90;;;;;;5064729;28;20044;-79
2022/07/26 01:19:17;;;;;;;21.55;20.05;;;18.10;99.90;;;;;;5041813;28;20044;-78
2022/07/26 01:21:44;;;;;;;21.45;19.27;;;18.10;99.90;;;;;;5044195;28;20402;-78
2022/07/26 01:24:11;;;;;;;21.85;20.02;;;18.20;99.90;;;;;;5055295;28;20512;-78
2022/07/26 01:26:38;;;;;;;22.55;20.52;;;18.20;99.90;;;;;;5049399;28;20186;-78
2022/07/26 01:29:05;;;;;;;21.73;19.75;;;18.20;99.90;;;;;;5067099;28;20094;-78
2022/07/26 01:31:32;;;;;;;21.08;19.13;;;18.20;99.90;;;;;;5042077;28;20053;-78
2022/07/26 01:33:59;;;;;;;20.98;19.08;;;18.20;99.90;;;;;;5036320;28;20047;-77
2022/07/26 01:36:25;;;;;;;21.77;19.80;;;18.10;99.90;;;;;;5053804;28;20237;-77
2022/07/26 01:38:52;;;;;;;19.60;18.35;;;17.90;99.90;;;;;;5056597;28;20037;-78
2022/07/26 01:41:19;;;;;;;20.50;18.55;;;17.90;99.90;;;;;;5041553;28;20036;-78
2022/07/26 01:44:04;;;;;;;20.27;18.67;;;17.90;99.90;;;;;;5055162;28;20044;-78
2022/07/26 01:46:32;;;;;;;20.35;18.60;;;18.00;99.90;;;;;;5048531;28;20132;-78
2022/07/26 01:49:00;;;;;;;19.50;18.10;;;17.90;99.90;;;;;;5046265;28;20160;-78
2022/07/26 01:51:27;;;;;;;19.45;18.15;;;18.00;99.90;;;;;;5054238;28;20040;-78
2022/07/26 01:53:54;;;;;;;19.67;18.35;;;17.90;99.90;;;;;;5047833;28;20126;-79
2022/07/26 01:56:21;;;;;;;19.73;18.45;;;17.90;99.90;;;;;;5044033;28;20033;-78
2022/07/26 01:58:48;;;;;;;19.98;18.55;;;17.90;99.90;;;;;;5035252;28;20158;-78
2022/07/26 02:01:15;;;;;;;19.95;18.50;;;17.90;99.90;;;;;;5052256;28;20036;-76
2022/07/26 02:04:02;;;;;;;19.65;18.25;;;17.90;99.90;;;;;;5040486;28;20044;-78
2022/07/26 02:06:29;;;;;;;20.40;19.02;;;17.90;99.90;;;;;;5030733;28;20068;-78
2022/07/26 02:08:55;;;;;;;19.75;18.35;;;17.90;99.90;;;;;;5039359;28;20123;-78
2022/07/26 02:11:22;;;;;;;19.33;18.13;;;17.90;99.90;;;;;;5052818;28;20416;-78
2022/07/26 02:13:49;;;;;;;19.90;18.48;;;17.90;99.90;;;;;;5050625;28;20783;-78
2022/07/26 02:16:19;;;;;;;20.25;18.75;;;17.90;99.90;;;;;;5061122;28;20074;-78
2022/07/26 02:18:46;;;;;;;19.98;18.42;;;17.90;99.90;;;;;;5036036;28;20029;-78
2022/07/26 02:21:12;;;;;;;19.25;18.00;;;17.90;99.90;;;;;;5074779;28;20413;-77
2022/07/26 02:23:39;;;;;;;20.10;18.63;;;17.80;99.90;;;;;;5036041;28;20044;-78
2022/07/26 02:26:08;;;;;;;19.75;18.65;;;17.80;99.90;;;;;;5030759;28;20072;-78
2022/07/26 02:28:34;;;;;;;19.67;18.27;;;17.70;99.90;;;;;;5069155;28;20106;-78
2022/07/26 02:31:01;;;;;;;20.60;18.95;;;17.70;99.90;;;;;;5076001;28;20680;-78
2022/07/26 02:33:28;;;;;;;20.23;18.80;;;17.70;99.90;;;;;;5076812;28;20048;-78
2022/07/26 02:35:55;;;;;;;20.58;19.10;;;17.70;99.90;;;;;;5047780;28;20052;-78
2022/07/26 02:38:21;;;;;;;19.92;18.55;;;17.60;99.90;;;;;;5066089;28;20496;-78
2022/07/26 02:40:51;;;;;;;19.92;18.52;;;17.60;99.90;;;;;;5057496;28;20054;-78
2022/07/26 02:43:18;;;;;;;20.08;18.48;;;17.60;99.90;;;;;;5053908;28;20040;-78
2022/07/26 02:45:45;;;;;;;19.95;18.48;;;17.50;99.90;;;;;;5061391;28;20062;-77
2022/07/26 02:48:31;;;;;;;20.80;19.08;;;17.40;99.90;;;;;;5094249;28;20039;-76
2022/07/26 02:50:58;;;;;;;19.80;18.38;;;17.40;99.90;;;;;;5060912;28;20554;-78
2022/07/26 02:53:25;;;;;;;20.70;18.98;;;17.30;99.90;;;;;;5052190;28;20052;-78
2022/07/26 02:55:52;;;;;;;19.40;17.85;;;17.30;99.90;;;;;;5057493;28;20078;-77
2022/07/26 02:58:20;;;;;;;20.15;18.77;;;17.30;99.90;;;;;;5067944;28;20041;-79
2022/07/26 03:00:47;;;;;;;19.83;18.50;;;17.30;99.90;;;;;;5057276;28;20044;-79
2022/07/26 03:03:14;;;;;;;19.90;18.35;;;17.30;99.90;;;;;;5048620;28;20040;-77
2022/07/26 03:05:41;;;;;;;20.40;18.55;;;17.20;99.90;;;;;;5055438;28;20045;-79
2022/07/26 03:08:07;;;;;;;19.73;18.35;;;17.20;99.90;;;;;;5050672;28;20044;-77
2022/07/26 03:10:34;;;;;;;20.63;19.15;;;17.20;99.90;;;;;;5061805;28;20044;-78
2022/07/26 03:13:01;;;;;;;20.58;18.50;;;17.20;99.90;;;;;;5056694;28;20421;-77
2022/07/26 03:15:28;;;;;;;20.50;18.80;;;17.20;99.90;;;;;;5057325;28;20561;-78
2022/07/26 03:17:55;;;;;;;20.27;18.75;;;17.30;99.90;;;;;;5033748;28;20098;-78
2022/07/26 03:20:22;;;;;;;20.42;18.95;;;17.30;99.90;;;;;;5064476;28;20049;-78
2022/07/26 03:22:48;;;;;;;20.92;18.70;;;17.30;99.90;;;;;;5051202;28;20089;-78
2022/07/26 03:25:15;;;;;;;20.77;18.95;;;17.30;99.90;;;;;;5070901;28;20048;-78
2022/07/26 03:27:42;;;;;;;19.75;18.13;;;17.30;99.90;;;;;;5053418;28;20090;-78
2022/07/26 03:30:09;;;;;;;20.52;18.60;;;17.20;99.90;;;;;;5071864;28;20057;-78
2022/07/26 03:32:36;;;;;;;21.20;19.52;;;17.20;99.90;;;;;;5057876;28;20048;-78
2022/07/26 03:35:04;;;;;;;20.67;18.90;;;17.20;99.90;;;;;;5052488;28;20044;-76
2022/07/26 03:37:32;;;;;;;19.33;17.77;;;17.30;99.90;;;;;;5066798;28;20068;-78
2022/07/26 03:40:17;;;;;;;20.20;18.67;;;17.20;99.90;;;;;;5048387;28;20068;-78
2022/07/26 03:42:45;;;;;;;19.85;18.15;;;17.20;99.90;;;;;;5046530;28;20048;-78
2022/07/26 03:45:13;;;;;;;20.38;18.50;;;17.30;99.90;;;;;;5046028;28;20053;-77
2022/07/26 03:47:40;;;;;;;20.42;19.05;;;17.20;99.90;;;;;;5047612;28;20693;-78
2022/07/26 03:50:08;;;;;;;19.60;18.02;;;17.20;99.90;;;;;;5070065;28;20048;-78
2022/07/26 03:52:35;;;;;;;19.02;17.63;;;17.20;99.90;;;;;;5050171;28;20044;-77
2022/07/26 03:56:27;;;;;;;20.13;18.23;;;17.20;99.90;;;;;;5045910;28;20048;-77
2022/07/26 03:57:52;;;;;;;19.30;17.77;;;17.10;99.90;;;;;;5072254;28;20044;-77
2022/07/26 04:00:19;;;;;;;21.30;19.27;;;17.10;99.90;;;;;;5061995;28;20033;-78
2022/07/26 04:02:46;;;;;;;19.70;18.25;;;17.10;99.90;;;;;;5052016;28;20036;-77
2022/07/26 04:05:12;;;;;;;19.45;18.10;;;17.00;99.90;;;;;;5067183;28;20045;-77
2022/07/26 04:07:44;;;;;;;19.45;18.05;;;17.00;99.90;;;;;;5051796;28;20136;-78
2022/07/26 04:10:20;;;;;;;19.48;18.20;;;17.00;99.90;;;;;;5052988;28;20048;-78
2022/07/26 04:12:47;;;;;;;19.42;18.05;;;17.00;99.90;;;;;;5055467;28;20051;-77
2022/07/26 04:15:15;;;;;;;20.10;18.17;;;17.00;99.90;;;;;;5070892;28;20044;-77
2022/07/26 04:17:42;;;;;;;20.58;18.75;;;17.00;99.90;;;;;;5036905;28;20135;-78
2022/07/26 04:20:11;;;;;;;20.95;19.08;;;17.00;99.90;;;;;;5075049;28;20093;-80
2022/07/26 04:22:39;;;;;;;20.77;19.15;;;17.00;99.90;;;;;;5042582;28;20040;-77
2022/07/26 04:25:07;;;;;;;20.27;18.65;;;17.00;99.90;;;;;;5045700;28;20051;-77
2022/07/26 04:27:35;;;;;;;21.27;19.45;;;17.00;99.90;;;;;;5055833;28;20044;-78
2022/07/26 04:30:01;;;;;;;20.80;19.17;;;17.10;99.90;;;;;;5079273;28;20125;-76
2022/07/26 04:32:28;;;;;;;22.60;20.77;;;17.10;99.90;;;;;;5049480;28;20232;-78
2022/07/26 04:34:55;;;;;;;21.38;19.35;;;17.00;99.90;;;;;;5066826;28;20071;-78
2022/07/26 04:37:22;;;;;;;22.42;20.70;;;17.00;99.90;;;;;;5062275;28;20425;-78
2022/07/26 04:39:48;;;;;;;22.35;20.42;;;16.90;99.90;;;;;;5055447;28;20097;-78
2022/07/26 04:42:20;;;;;;;22.13;20.02;;;16.90;99.90;;;;;;5056002;28;20036;-78
2022/07/26 04:44:47;;;;;;;20.88;19.02;;;16.80;99.90;;;;;;5040101;28;20043;-78
2022/07/26 04:47:14;;;;;;;20.63;18.48;;;16.70;99.90;;;;;;5051239;28;20040;-78
2022/07/26 04:49:41;;;;;;;23.30;19.52;;;16.60;99.90;;;;;;5057657;28;20040;-79
2022/07/26 04:52:07;;;;;;;19.42;17.73;;;16.60;99.90;;;;;;5067856;28;20127;-79
2022/07/26 04:54:34;;;;;;;20.40;18.60;;;16.50;99.90;;;;;;5061578;28;20150;-78
2022/07/26 04:57:01;;;;;;;20.38;18.38;;;16.40;99.90;;;;;;5065509;28;20094;-75
2022/07/26 04:59:27;;;;;;;19.52;17.70;;;16.40;99.90;;;;;;5036458;28;20052;-77
2022/07/26 05:01:58;;;;;;;19.05;17.23;;;16.40;99.90;;;;;;5065734;28;20472;-79
2022/07/26 05:04:25;;;;;;;19.02;17.02;;;16.40;99.90;;;;;;5051402;28;20049;-79
2022/07/26 05:06:52;;;;;;;20.85;17.60;;;16.30;99.90;;;;;;5057141;28;20178;-77
2022/07/26 05:09:19;;;;;;;18.63;17.08;;;16.30;99.90;;;;;;5056932;28;20067;-77
2022/07/26 05:11:46;;;;;;;19.33;17.15;;;16.30;99.90;;;;;;5046942;28;20121;-77
2022/07/26 05:14:12;;;;;;;18.25;16.75;;;16.30;99.90;;;;;;5045358;28;20048;-79
2022/07/26 05:16:39;;;;;;;18.63;16.77;;;16.30;99.90;;;;;;5063815;28;20060;-79
2022/07/26 05:19:10;;;;;;;19.85;18.05;;;16.40;99.90;;;;;;5042904;28;20040;-76
2022/07/26 05:21:36;;;;;;;21.10;17.73;;;16.50;99.90;;;;;;5039537;28;20856;-78
2022/07/26 05:24:03;;;;;;;19.95;17.40;;;16.40;99.90;;;;;;5054854;28;20043;-78
2022/07/26 05:26:33;;;;;;;18.88;16.98;;;16.40;99.90;;;;;;5034809;28;20051;-77
2022/07/26 05:29:00;;;;;;;20.05;18.05;;;16.50;99.90;;;;;;5067860;28;20118;-79
2022/07/26 05:31:27;;;;;;;19.08;17.15;;;16.50;99.90;;;;;;5067662;28;20041;-77
2022/07/26 05:33:55;;;;;;;19.92;17.75;;;16.50;99.90;;;;;;5063967;28;20048;-77
2022/07/26 05:36:21;;;;;;;19.23;17.38;;;16.60;99.90;;;;;;5066364;28;20036;-78
2022/07/26 05:38:48;;;;;;;19.00;17.40;;;16.70;99.90;;;;;;5068459;28;20119;-80
2022/07/26 05:41:15;;;;;;;21.67;17.77;;;16.60;99.90;;;;;;5051645;28;20048;-78
2022/07/26 05:43:42;;;;;;;19.85;18.13;;;16.60;99.90;;;;;;5044883;28;20041;-78
2022/07/26 05:46:10;;;;;;;19.50;17.88;;;16.60;99.90;;;;;;5058267;28;20040;-77
2022/07/26 05:48:41;;;;;;;19.15;17.75;;;16.60;99.90;;;;;;5052765;28;20056;-79
2022/07/26 05:51:09;;;;;;;20.08;18.15;;;16.60;99.90;;;;;;5037896;28;20833;-77
2022/07/26 05:53:36;;;;;;;20.02;18.23;;;16.70;99.90;;;;;;5046895;28;20480;-77
2022/07/26 05:56:04;;;;;;;20.35;18.17;;;16.70;99.90;;;;;;5066641;28;20040;-79
2022/07/26 05:58:31;;;;;;;21.73;18.90;;;16.70;99.90;;;;;;5088559;28;20332;-78
2022/07/26 06:00:58;;;;;;;24.58;18.20;;;16.70;99.90;;;;;;5090658;28;20313;-79
2022/07/26 06:03:25;;;;;;;20.23;18.33;;;16.70;99.90;;;;;;5054740;28;20047;-76
2022/07/26 06:05:55;;;;;;;19.27;17.67;;;16.80;99.90;;;;;;5032358;28;20040;-78
2022/07/26 06:08:25;;;;;;;20.20;18.20;;;16.80;99.90;;;;;;5049752;28;20044;-77
2022/07/26 06:10:53;;;;;;;20.55;18.60;;;16.80;99.90;;;;;;5056707;28;20750;-77
2022/07/26 06:13:20;;;;;;;20.83;18.83;;;16.80;99.90;;;;;;5068580;28;20048;-78
2022/07/26 06:15:47;;;;;;;19.90;18.38;;;16.90;99.90;;;;;;5053092;28;20123;-77
2022/07/26 06:18:14;;;;;;;21.88;19.77;;;16.90;99.90;;;;;;5035125;28;20548;-77
2022/07/26 06:20:43;;;;;;;21.10;18.90;;;17.00;99.90;;;;;;5057685;28;20051;-78
2022/07/26 06:23:10;;;;;;;21.98;19.90;;;17.00;99.90;;;;;;5038529;28;20048;-76
2022/07/26 06:25:38;;;;;;;21.95;19.85;;;17.00;99.90;;;;;;5056382;28;20105;-76
2022/07/26 06:28:07;;;;;;;24.48;20.77;;;17.10;99.90;;;;;;5055635;28;20055;-78
2022/07/26 06:30:35;;;;;;;22.95;20.90;;;17.20;99.90;;;;;;5049809;28;20155;-77
2022/07/26 06:33:01;;;;;;;30.17;22.95;;;17.30;99.90;;;;;;5043907;28;20090;-77
2022/07/26 06:35:30;;;;;;;26.48;23.58;;;17.30;99.90;;;;;;5051007;28;20578;-78
2022/07/26 06:37:57;;;;;;;27.83;23.05;;;17.40;99.90;;;;;;5052607;28;20050;-78
2022/07/26 06:40:24;;;;;;;29.75;23.55;;;17.40;99.90;;;;;;5051437;28;20048;-77
2022/07/26 06:42:51;;;;;;;29.00;23.58;;;17.40;99.90;;;;;;5074862;28;20036;-78
2022/07/26 06:45:18;;;;;;;25.02;22.48;;;17.50;99.90;;;;;;5050030;28;20032;-77
2022/07/26 06:47:45;;;;;;;24.42;22.45;;;17.50;99.90;;;;;;5040729;28;20039;-76
2022/07/26 06:50:12;;;;;;;24.80;22.45;;;17.40;99.90;;;;;;5053962;28;20086;-80
2022/07/26 06:52:38;;;;;;;25.25;22.90;;;17.40;99.90;;;;;;5053300;28;20113;-78
2022/07/26 06:55:07;;;;;;;27.23;22.38;;;17.40;99.90;;;;;;5062069;28;20044;-77
2022/07/26 06:57:38;;;;;;;25.05;22.10;;;17.30;99.90;;;;;;5072702;28;20678;-79
2022/07/26 07:00:16;;;;;;;24.60;21.92;;;17.30;99.90;;;;;;5039243;28;20094;-76
2022/07/26 07:02:43;;;;;;;24.48;22.17;;;17.40;99.90;;;;;;5051952;28;20481;-77
2022/07/26 07:05:10;;;;;;;25.63;23.10;;;17.50;99.90;;;;;;5072362;28;20052;-77
2022/07/26 07:07:37;;;;;;;23.83;21.42;;;17.50;99.90;;;;;;5076221;28;20052;-78
2022/07/26 07:10:08;;;;;;;22.27;20.23;;;17.50;99.90;;;;;;5078046;28;20131;-80
2022/07/26 07:12:35;;;;;;;23.85;21.80;;;17.60;99.90;;;;;;5069137;28;20465;-79
2022/07/26 07:15:02;;;;;;;23.33;21.13;;;17.60;99.90;;;;;;5075914;28;20051;-79
2022/07/26 07:17:29;;;;;;;23.75;21.27;;;17.60;99.90;;;;;;5055039;28;20098;-79
2022/07/26 07:19:55;;;;;;;23.38;21.00;;;17.70;99.90;;;;;;5072129;28;20042;-78
2022/07/26 07:22:22;;;;;;;22.08;20.23;;;17.50;99.90;;;;;;5055184;28;20044;-79
2022/07/26 07:24:49;;;;;;;21.25;19.40;;;17.50;99.90;;;;;;5063333;28;20044;-78
2022/07/26 07:27:16;;;;;;;21.95;19.67;;;17.30;99.90;;;;;;5051347;28;20045;-79
2022/07/26 07:29:43;;;;;;;20.52;18.65;;;17.10;99.90;;;;;;5052624;28;20040;-78
2022/07/26 07:32:10;;;;;;;21.02;19.20;;;17.10;99.90;;;;;;5043275;28;20044;-78
2022/07/26 07:34:46;;;;;;;19.85;18.20;;;17.10;99.90;;;;;;5051673;28;20079;-80
2022/07/26 07:37:14;;;;;;;20.48;18.48;;;17.10;99.90;;;;;;5056166;28;20117;-79
2022/07/26 07:39:41;;;;;;;19.17;17.65;;;17.10;99.90;;;;;;5056841;28;20055;-79
2022/07/26 07:42:08;;;;;;;19.45;17.98;;;17.30;99.90;;;;;;5056430;28;20423;-78
2022/07/26 07:44:36;;;;;;;19.52;17.67;;;17.40;99.90;;;;;;5056842;28;20048;-78
2022/07/26 07:47:03;;;;;;;18.10;16.63;;;17.30;99.90;;;;;;5052701;28;20071;-78
2022/07/26 07:49:30;;;;;;;19.80;18.10;;;17.30;99.90;;;;;;5036799;28;20040;-78
2022/07/26 07:51:57;;;;;;;19.55;17.77;;;17.40;99.90;;;;;;5065541;28;20048;-78
2022/07/26 07:54:24;;;;;;;19.50;17.77;;;17.40;99.90;;;;;;5054143;28;20049;-78
2022/07/26 07:56:51;;;;;;;20.98;19.40;;;17.60;99.90;;;;;;5054390;28;20074;-78
2022/07/26 07:59:18;;;;;;;20.98;19.48;;;17.60;99.90;;;;;;5051947;28;20040;-78
2022/07/26 08:01:48;;;;;;;20.83;19.20;;;17.50;99.90;;;;;;5071393;28;20044;-78
2022/07/26 08:04:16;;;;;;;20.30;18.45;;;17.70;99.90;;;;;;5038442;28;20055;-79
2022/07/26 08:06:43;;;;;;;21.58;19.88;;;17.80;99.90;;;;;;5033580;28;20035;-78
2022/07/26 08:09:17;;;;;;;19.30;18.00;;;17.90;99.90;;;;;;5070340;28;20080;-79
2022/07/26 08:11:44;;;;;;;20.95;19.42;;;18.10;99.90;;;;;;5051391;28;20048;-79
2022/07/26 08:14:17;;;;;;;20.35;18.85;;;18.20;99.90;;;;;;5076079;28;20212;-78
2022/07/26 08:16:44;;;;;;;20.35;18.88;;;18.30;99.90;;;;;;5057811;28;20036;-79
2022/07/26 08:19:10;;;;;;;21.40;19.80;;;18.30;99.90;;;;;;5069429;28;20056;-78
2022/07/26 08:21:38;;;;;;;21.08;19.58;;;18.30;99.90;;;;;;5045367;28;20044;-78
2022/07/26 08:24:05;;;;;;;20.73;19.42;;;18.50;99.90;;;;;;5069292;28;20066;-78
2022/07/26 08:26:32;;;;;;;21.63;20.00;;;18.50;99.90;;;;;;5059114;28;20158;-78
2022/07/26 08:28:59;;;;;;;21.33;19.92;;;18.70;99.90;;;;;;5038775;28;20097;-76
2022/07/26 08:31:29;;;;;;;22.30;20.50;;;19.00;99.90;;;;;;5052054;28;20055;-78
2022/07/26 08:33:56;;;;;;;21.17;19.75;;;19.00;99.90;;;;;;5059020;28;20598;-77
2022/07/26 08:36:24;;;;;;;20.80;19.60;;;19.00;99.90;;;;;;5065640;28;20044;-78
2022/07/26 08:38:58;;;;;;;22.00;20.70;;;19.20;99.90;;;;;;5047190;28;20039;-76
2022/07/26 08:41:25;;;;;;;21.52;20.13;;;19.50;99.90;;;;;;5045580;28;20056;-77
2022/07/26 08:43:52;;;;;;;24.00;22.10;;;19.80;99.90;;;;;;5046041;28;20060;-77
2022/07/26 08:46:22;;;;;;;22.75;21.10;;;20.20;99.90;;;;;;5064154;28;20121;-77
2022/07/26 08:48:54;;;;;;;22.13;20.65;;;20.10;99.90;;;;;;5052934;28;20048;-78
2022/07/26 08:51:23;;;;;;;23.95;21.77;;;19.90;99.90;;;;;;5050632;28;20040;-78
2022/07/26 08:53:54;;;;;;;22.75;21.27;;;19.70;99.90;;;;;;5066260;28;20048;-78
2022/07/26 08:56:31;;;;;;;23.45;21.58;;;19.70;99.90;;;;;;5052795;28;20052;-77
2022/07/26 08:59:01;;;;;;;22.33;20.67;;;19.60;99.90;;;;;;5048430;28;20493;-78
2022/07/26 09:01:27;;;;;;;22.70;20.83;;;19.60;99.90;;;;;;5076598;28;20044;-78
2022/07/26 09:03:54;;;;;;;23.67;21.92;;;19.80;99.90;;;;;;5052798;28;20672;-79
2022/07/26 09:06:22;;;;;;;23.73;22.33;;;19.70;99.90;;;;;;5065933;28;20112;-79
2022/07/26 09:09:09;;;;;;;24.13;22.40;;;19.80;99.90;;;;;;5048028;28;20044;-79
2022/07/26 09:11:36;;;;;;;24.17;22.38;;;20.40;99.90;;;;;;5077033;28;20044;-76
2022/07/26 09:14:04;;;;;;;24.60;23.00;;;20.50;99.90;;;;;;5058357;28;20044;-77
2022/07/26 09:16:32;;;;;;;24.38;22.88;;;20.50;99.90;;;;;;5052592;28;20281;-77
2022/07/26 09:19:17;;;;;;;26.52;24.83;;;20.50;99.90;;;;;;5058848;28;20050;-77
2022/07/26 09:21:45;;;;;;;26.92;25.10;;;20.80;99.90;;;;;;5066873;28;20044;-76
2022/07/26 09:24:13;;;;;;;25.02;23.42;;;20.80;99.90;;;;;;5031569;28;20044;-77
2022/07/26 09:26:39;;;;;;;26.55;24.65;;;21.00;99.90;;;;;;5048059;28;20036;-76
2022/07/26 09:29:08;;;;;;;27.40;25.42;;;21.10;99.90;;;;;;5069050;28;20242;-76
2022/07/26 09:31:37;;;;;;;29.10;27.00;;;21.30;99.90;;;;;;5045387;28;20547;-77
2022/07/26 09:34:05;;;;;;;27.67;25.63;;;21.60;99.90;;;;;;5068675;28;20068;-77
2022/07/26 09:36:48;;;;;;;30.75;28.50;;;21.80;99.90;;;;;;5047024;28;20055;-78
2022/07/26 09:39:15;;;;;;;30.58;28.50;;;21.70;99.90;;;;;;5070774;28;20047;-78
2022/07/26 09:41:41;;;;;;;31.48;29.20;;;22.00;99.90;;;;;;5060066;28;20670;-77
2022/07/26 09:44:23;;;;;;;31.10;28.92;;;22.10;99.90;;;;;;5040725;28;20094;-77
2022/07/26 09:46:52;;;;;;;32.90;30.27;;;22.40;99.90;;;;;;5068940;28;20045;-77
2022/07/26 09:49:21;;;;;;;33.25;30.73;;;22.30;99.90;;;;;;5045549;28;20890;-77
2022/07/26 09:51:51;;;;;;;31.95;29.65;;;22.40;99.90;;;;;;5072136;28;20067;-78
2022/07/26 09:54:34;;;;;;;28.73;26.95;;;22.70;99.90;;;;;;5048458;28;20044;-78
2022/07/26 09:57:02;;;;;;;31.48;29.02;;;22.80;99.90;;;;;;5050283;28;20044;-77
2022/07/26 09:59:29;;;;;;;28.92;27.13;;;23.10;99.90;;;;;;5034457;28;20036;-77
2022/07/26 10:01:57;;;;;;;31.13;28.63;;;23.30;99.90;;;;;;5067746;28;20036;-78
2022/07/26 10:04:25;;;;;;;30.65;28.55;;;23.00;99.90;;;;;;5049470;28;20602;-76
2022/07/26 10:06:53;;;;;;;30.02;27.48;;;22.60;99.90;;;;;;5030108;28;20077;-78
2022/07/26 10:09:22;;;;;;;29.73;27.88;;;22.50;99.90;;;;;;5032267;28;20047;-78
2022/07/26 10:11:56;;;;;;;29.38;27.35;;;22.60;99.90;;;;;;5072597;28;20040;-78
2022/07/26 10:14:32;;;;;;;30.90;28.88;;;22.90;99.90;;;;;;5051640;28;20044;-76
2022/07/26 10:17:20;;;;;;;28.90;26.90;;;23.00;99.90;;;;;;5061197;28;20041;-79
2022/07/26 10:19:55;;;;;;;31.75;29.52;;;23.00;99.90;;;;;;5064541;28;20113;-76
2022/07/26 10:22:23;;;;;;;32.50;29.75;;;23.30;99.90;;;;;;5044858;28;20578;-79
2022/07/26 10:24:51;;;;;;;32.47;30.10;;;23.60;99.90;;;;;;5049417;28;20044;-76
2022/07/26 10:27:39;;;;;;;32.65;30.00;;;23.40;99.90;;;;;;5049088;28;20079;-78
2022/07/26 10:30:18;;;;;;;29.63;27.45;;;23.50;99.90;;;;;;5048931;28;20041;-79
2022/07/26 10:33:00;;;;;;;33.15;30.77;;;23.30;99.90;;;;;;5036023;28;20056;-77
2022/07/26 10:35:40;;;;;;;33.67;31.30;;;23.10;99.90;;;;;;5029723;28;20040;-79
2022/07/26 10:38:17;;;;;;;33.88;31.65;;;23.00;99.90;;;;;;5049780;28;20041;-79
2022/07/26 10:41:02;;;;;;;33.17;30.88;;;23.10;99.90;;;;;;5065688;28;20526;-78
2022/07/26 10:43:29;;;;;;;34.40;31.73;;;23.60;99.90;;;;;;5058434;28;20093;-76
2022/07/26 10:46:16;;;;;;;33.63;31.23;;;23.90;99.90;;;;;;5061892;28;20102;-76
2022/07/26 10:49:05;;;;;;;34.15;31.75;;;24.20;99.90;;;;;;5037781;28;20355;-78
2022/07/26 10:51:38;;;;;;;32.88;30.50;;;23.70;99.90;;;;;;5040118;28;20413;-77
2022/07/26 10:54:10;;;;;;;35.08;32.42;;;23.20;99.90;;;;;;5042214;28;20048;-79
2022/07/26 10:56:39;;;;;;;35.25;32.25;;;22.90;99.90;;;;;;5052633;28;20041;-78
2022/07/26 10:59:06;;;;;;;25.10;22.95;;;22.30;99.90;;;;;;5062344;28;20048;-80
2022/07/26 11:01:34;;;;;;;33.08;18.77;;;20.90;99.90;;;;;;5045810;28;20056;-78
2022/07/26 11:04:02;;;;;;;14.75;13.63;;;19.20;99.90;;;;;;5055799;28;20046;-77
2022/07/26 11:06:29;;;;;;;13.05;11.95;;;17.90;99.90;;;;;;5046100;28;20036;-77
2022/07/26 11:08:56;;;;;;;12.38;11.38;;;17.50;99.90;;;;;;5046440;28;20469;-77
2022/07/26 11:11:29;;;;;;;11.68;10.63;;;17.20;99.90;;;;;;5033575;28;20101;-78
2022/07/26 11:14:10;;;;;;;11.85;10.70;;;17.00;99.90;;;;;;5036349;28;20564;-78
2022/07/26 11:16:40;;;;;;;7.95;7.35;;;16.90;99.90;;;;;;5060215;28;20050;-78
2022/07/26 11:19:20;;;;;;;8.20;7.57;;;16.80;99.90;;;;;;5051104;28;20045;-79
2022/07/26 11:21:59;;;;;;;7.68;7.05;;;16.70;99.90;;;;;;5048832;28;20040;-78
2022/07/26 11:24:27;;;;;;;7.78;7.05;;;16.60;99.90;;;;;;5060425;28;20047;-78
2022/07/26 11:26:55;;;;;;;7.35;6.65;;;16.50;99.90;;;;;;5033261;28;20063;-78
2022/07/26 11:29:26;;;;;;;6.70;5.82;;;16.40;99.90;;;;;;5052004;28;20651;-77
2022/07/26 11:32:19;;;;;;;5.97;5.40;;;16.30;99.90;;;;;;5036403;28;20118;-78
2022/07/26 11:35:00;;;;;;;10.73;7.70;;;16.20;99.90;;;;;;5046131;28;20052;-77
2022/07/26 11:37:27;;;;;;;7.25;6.65;;;16.10;99.90;;;;;;5034187;28;20514;-78
2022/07/26 11:39:54;;;;;;;5.70;5.18;;;16.40;99.90;;;;;;5027965;28;20028;-77
2022/07/26 11:42:21;;;;;;;9.13;6.65;;;16.40;99.90;;;;;;5046290;28;20033;-78
2022/07/26 11:44:49;;;;;;;7.57;5.38;;;16.50;99.90;;;;;;5040607;28;20735;-77
2022/07/26 11:47:18;;;;;;;6.85;5.60;;;16.40;99.90;;;;;;5047999;28;20048;-78
2022/07/26 11:49:46;;;;;;;7.30;6.65;;;16.50;99.90;;;;;;5061323;28;20090;-78
2022/07/26 11:52:32;;;;;;;5.95;5.32;;;16.70;99.90;;;;;;5057817;28;20250;-78
2022/07/26 11:54:59;;;;;;;6.07;5.47;;;16.70;99.90;;;;;;5057797;28;20048;-78
2022/07/26 11:57:28;;;;;;;5.82;4.28;;;16.70;99.90;;;;;;5040050;28;20117;-77
2022/07/26 11:59:57;;;;;;;6.30;5.25;;;16.80;99.90;;;;;;5030916;28;20048;-77
2022/07/26 12:02:24;;;;;;;7.10;6.18;;;16.80;99.90;;;;;;5030484;28;20118;-78
2022/07/26 12:05:13;;;;;;;9.70;6.30;;;17.00;99.90;;;;;;5040547;28;21554;-78
2022/07/26 12:07:52;;;;;;;5.00;4.53;;;17.20;99.90;;;;;;5055213;28;20053;-77
2022/07/26 12:10:19;;;;;;;6.40;5.80;;;17.20;99.90;;;;;;5033333;28;20471;-78
2022/07/26 12:12:45;;;;;;;9.35;6.82;;;17.10;99.90;;;;;;5048305;28;20102;-77
2022/07/26 12:15:14;;;;;;;7.35;6.75;;;17.20;99.90;;;;;;5026956;28;20527;-79
2022/07/26 12:17:57;;;;;;;7.47;6.57;;;17.50;99.90;;;;;;5039181;28;20082;-78
2022/07/26 12:20:26;;;;;;;4.95;4.55;;;17.70;99.90;;;;;;5069215;28;20504;-78
2022/07/26 12:22:56;;;;;;;5.57;5.07;;;17.80;99.90;;;;;;5089423;28;20051;-79
2022/07/26 12:25:25;;;;;;;5.15;4.75;;;17.80;99.90;;;;;;5047607;28;20125;-79
2022/07/26 12:27:52;;;;;;;4.88;4.32;;;18.10;99.90;;;;;;5032420;28;20052;-79
2022/07/26 12:30:19;;;;;;;7.45;6.82;;;18.30;99.90;;;;;;5029843;28;20419;-78
2022/07/26 12:32:47;;;;;;;10.32;9.40;;;18.40;99.90;;;;;;5051724;28;20114;-79
2022/07/26 12:35:16;;;;;;;9.48;8.75;;;18.50;99.90;;;;;;5031774;28;20044;-78
2022/07/26 12:37:46;;;;;;;10.50;9.45;;;18.50;99.90;;;;;;5055747;28;20069;-79